createdAt,value
2019-05-20T00:01:53.189Z,19.40
2019-05-20T00:10:10.847Z,18.20
2019-05-20T00:18:28.319Z,16.33
2019-05-20T00:26:45.775Z,18.10
2019-05-20T00:35:03.317Z,18.47
2019-05-20T00:43:20.817Z,18.47
2019-05-20T00:51:38.357Z,18.43
2019-05-20T00:59:55.773Z,19.13
2019-05-20T01:08:13.217Z,17.47
2019-05-20T01:16:30.742Z,19.00
2019-05-20T01:24:48.258Z,18.10
2019-05-20T01:33:13.901Z,20.53
2019-05-20T01:41:24.910Z,19.42
2019-05-20T01:49:42.493Z,17.00
2019-05-20T01:58:00.014Z,18.40
2019-05-20T02:06:17.797Z,19.23
2019-05-20T02:14:40.638Z,19.07
2019-05-20T02:23:14.479Z,18.23
2019-05-20T02:31:31.936Z,18.90
2019-05-20T02:39:49.394Z,19.70
2019-05-20T02:48:06.847Z,18.07
2019-05-20T02:56:24.288Z,16.97
2019-05-20T03:04:41.713Z,17.40
2019-05-20T03:12:59.154Z,18.50
2019-05-20T03:21:16.639Z,18.90
2019-05-20T03:29:34.094Z,19.80
2019-05-20T03:37:51.543Z,16.90
2019-05-20T03:46:09.044Z,19.67
2019-05-20T03:54:26.553Z,19.27
2019-05-20T04:02:43.969Z,20.00
2019-05-20T04:11:01.475Z,16.57
2019-05-20T04:19:19.006Z,16.60
2019-05-20T04:27:36.475Z,15.70
2019-05-20T04:35:53.991Z,15.50
2019-05-20T04:44:11.420Z,17.63
2019-05-20T04:52:28.869Z,15.68
2019-05-20T05:00:53.473Z,17.30
2019-05-20T05:09:10.975Z,17.12
2019-05-20T05:17:28.436Z,17.50
2019-05-20T05:25:45.899Z,15.00
2019-05-20T05:34:03.364Z,15.77
2019-05-20T05:42:20.845Z,15.18
2019-05-20T05:50:38.413Z,15.70
2019-05-20T05:58:55.833Z,14.93
2019-05-20T06:07:13.281Z,14.60
2019-05-20T06:15:31.246Z,15.40
2019-05-20T06:23:50.087Z,14.87
2019-05-20T06:32:07.595Z,15.13
2019-05-20T06:40:25.463Z,15.50
2019-05-20T06:48:43.342Z,13.63
2019-05-20T06:57:00.797Z,12.70
2019-05-20T07:05:18.246Z,12.57
2019-05-20T07:13:35.733Z,12.67
2019-05-20T07:21:53.453Z,10.90
2019-05-20T07:30:15.213Z,11.25
2019-05-20T07:38:31.094Z,10.20
2019-05-20T07:46:48.559Z,12.00
2019-05-20T07:55:06.737Z,8.80
2019-05-20T08:03:24.284Z,9.70
2019-05-20T08:11:41.817Z,8.40
2019-05-20T08:19:59.379Z,7.20
2019-05-20T08:28:16.954Z,7.93
2019-05-20T08:36:34.510Z,7.77
2019-05-20T08:44:52.728Z,6.80
2019-05-20T08:53:10.301Z,6.60
2019-05-20T09:01:27.765Z,6.00
2019-05-20T09:09:45.416Z,5.90
2019-05-20T09:18:03.281Z,5.97
2019-05-20T09:26:20.978Z,5.50
2019-05-20T09:34:38.779Z,5.83
2019-05-20T09:42:56.411Z,5.40
2019-05-20T09:51:14.027Z,6.53
2019-05-20T09:59:42.851Z,6.27
2019-05-20T10:07:51.450Z,5.97
2019-05-20T10:16:11.601Z,5.97
2019-05-20T10:24:29.224Z,5.87
2019-05-20T10:32:46.936Z,6.23
2019-05-20T10:41:04.443Z,5.10
2019-05-20T10:49:21.985Z,4.73
2019-05-20T10:57:39.688Z,5.50
2019-05-20T11:05:58.580Z,5.00
2019-05-20T11:14:36.925Z,5.63
2019-05-20T11:22:54.417Z,7.00
2019-05-20T11:31:12.132Z,5.20
2019-05-20T11:39:33.782Z,8.37
2019-05-20T11:47:48.860Z,5.83
2019-05-20T11:56:06.294Z,5.80
2019-05-20T12:04:23.845Z,6.67
2019-05-20T12:12:41.758Z,7.43
2019-05-20T12:21:16.980Z,7.30
2019-05-20T12:29:34.740Z,6.47
2019-05-20T12:37:53.391Z,6.40
2019-05-20T12:46:10.858Z,6.30
2019-05-20T12:54:28.595Z,6.47
2019-05-20T13:02:46.155Z,6.93
2019-05-20T13:11:03.697Z,7.20
2019-05-20T13:19:21.219Z,8.10
2019-05-20T13:27:38.770Z,7.30
2019-05-20T13:35:56.319Z,8.20
2019-05-20T13:44:13.765Z,9.30
2019-05-20T13:52:31.576Z,7.93
2019-05-20T14:00:49.053Z,8.43
2019-05-20T14:09:07.569Z,9.20
2019-05-20T14:17:25.483Z,9.10
2019-05-20T14:25:42.992Z,10.30
2019-05-20T14:34:00.461Z,12.90
2019-05-20T14:42:17.965Z,12.63
2019-05-20T14:50:35.608Z,14.47
2019-05-20T14:58:53.591Z,17.17
2019-05-20T15:07:11.923Z,20.30
2019-05-20T15:15:29.961Z,23.18
2019-05-20T15:23:47.394Z,24.92
2019-05-20T15:32:04.886Z,19.67
2019-05-20T15:40:24.361Z,9.10
2019-05-20T15:48:41.725Z,9.90
2019-05-20T15:56:59.348Z,7.10
2019-05-20T16:05:17.971Z,10.10
2019-05-20T16:13:35.502Z,9.55
2019-05-20T16:21:52.965Z,10.47
2019-05-20T16:30:11.431Z,11.43
2019-05-20T16:38:29.027Z,11.17
2019-05-20T16:46:46.516Z,14.00
2019-05-20T16:55:04.330Z,16.87
2019-05-20T17:03:21.790Z,18.77
2019-05-20T17:11:39.620Z,18.80
2019-05-20T17:19:57.428Z,18.67
2019-05-20T17:28:14.967Z,22.33
2019-05-20T17:36:32.476Z,21.57
2019-05-20T17:44:50.015Z,19.80
2019-05-20T17:53:07.495Z,16.43
2019-05-20T18:01:25.010Z,18.17
2019-05-20T18:09:46.823Z,18.50
2019-05-20T18:18:04.404Z,25.87
2019-05-20T18:26:21.955Z,23.40
2019-05-20T18:34:39.763Z,11.68
2019-05-20T18:42:57.354Z,17.93
2019-05-20T18:51:14.868Z,21.60
2019-05-20T18:59:32.453Z,27.00
2019-05-20T19:07:50.277Z,30.67
2019-05-20T19:16:08.020Z,32.53
2019-05-20T19:24:25.536Z,29.37
2019-05-20T19:32:43.052Z,25.27
2019-05-20T19:41:02.593Z,22.00
2019-05-20T19:49:20.185Z,28.97
2019-05-20T19:57:37.848Z,28.20
2019-05-20T20:05:55.337Z,26.57
2019-05-20T20:14:12.819Z,23.77
2019-05-20T20:22:30.315Z,20.60
2019-05-20T20:30:47.781Z,22.57
2019-05-20T20:39:06.095Z,24.60
2019-05-20T20:47:23.591Z,24.20
2019-05-20T20:55:41.029Z,26.80
2019-05-20T21:03:58.476Z,31.80
2019-05-20T21:12:15.933Z,23.87
2019-05-20T21:20:33.414Z,23.13
2019-05-20T21:28:50.967Z,23.90
2019-05-20T21:37:08.427Z,22.40
2019-05-20T21:45:25.863Z,19.90
2019-05-20T21:53:43.306Z,28.13
2019-05-20T22:02:01.034Z,22.77
2019-05-20T22:10:18.497Z,29.80
2019-05-20T22:18:36.049Z,28.40
2019-05-20T22:26:53.639Z,25.60
2019-05-20T22:35:11.697Z,29.67
2019-05-20T22:43:29.144Z,34.20
2019-05-20T22:51:46.718Z,30.63
2019-05-20T23:00:04.599Z,30.13
2019-05-20T23:08:22.120Z,33.50
2019-05-20T23:16:39.705Z,30.62
2019-05-20T23:24:57.157Z,32.83
2019-05-20T23:33:14.606Z,32.03
2019-05-20T23:41:33.008Z,31.10
2019-05-20T23:49:50.448Z,30.70
2019-05-20T23:58:07.918Z,28.97
